createdAt,value
2023-10-20T00:02:29.111Z,58.50
2023-10-20T00:04:56.213Z,61.38
2023-10-20T00:07:23.413Z,61.63
2023-10-20T00:09:51.057Z,65.95
2023-10-20T00:12:18.276Z,56.88
2023-10-20T00:14:46.074Z,52.55
2023-10-20T00:17:13.277Z,58.60
2023-10-20T00:19:40.093Z,56.60
2023-10-20T00:22:07.463Z,55.03
2023-10-20T00:24:34.507Z,60.13
2023-10-20T00:27:01.725Z,54.05
2023-10-20T00:29:28.534Z,52.63
2023-10-20T00:31:55.825Z,54.90
2023-10-20T00:34:22.836Z,52.92
2023-10-20T00:36:50.011Z,58.45
2023-10-20T00:39:17.759Z,54.63
2023-10-20T00:41:45.056Z,54.20
2023-10-20T00:44:11.871Z,55.63
2023-10-20T00:46:39.035Z,49.58
2023-10-20T00:49:06.202Z,48.95
2023-10-20T00:51:33.376Z,50.42
2023-10-20T00:54:00.828Z,50.90
2023-10-20T00:56:28.155Z,53.80
2023-10-20T00:58:54.911Z,50.65
2023-10-20T01:01:22.150Z,49.55
2023-10-20T01:03:49.629Z,49.00
2023-10-20T01:06:16.769Z,51.20
2023-10-20T01:08:43.752Z,51.88
2023-10-20T01:11:10.877Z,45.40
2023-10-20T01:13:38.498Z,49.72
2023-10-20T01:16:05.917Z,47.30
2023-10-20T01:18:33.390Z,52.75
2023-10-20T01:21:00.501Z,48.28
2023-10-20T01:23:27.372Z,51.22
2023-10-20T01:25:54.539Z,47.03
2023-10-20T01:28:21.359Z,47.50
2023-10-20T01:30:48.863Z,47.40
2023-10-20T01:33:15.995Z,47.72
2023-10-20T01:35:43.149Z,47.50
2023-10-20T01:38:12.019Z,45.42
2023-10-20T01:40:39.123Z,47.50
2023-10-20T01:43:05.895Z,43.70
2023-10-20T01:45:33.029Z,43.08
2023-10-20T01:47:59.853Z,45.47
2023-10-20T01:50:27.889Z,50.13
2023-10-20T01:52:54.776Z,45.42
2023-10-20T01:55:21.964Z,42.38
2023-10-20T01:57:48.768Z,40.92
2023-10-20T02:00:16.335Z,42.80
2023-10-20T02:02:43.368Z,40.42
2023-10-20T02:05:10.928Z,40.35
2023-10-20T02:07:38.176Z,40.30
2023-10-20T02:10:07.969Z,41.13
2023-10-20T02:12:35.528Z,37.20
2023-10-20T02:15:02.682Z,39.45
2023-10-20T02:17:30.189Z,36.55
2023-10-20T02:19:58.602Z,36.95
2023-10-20T02:22:26.395Z,38.05
2023-10-20T02:24:54.311Z,36.83
2023-10-20T02:27:21.305Z,34.55
2023-10-20T02:29:48.456Z,36.28
2023-10-20T02:32:15.380Z,37.28
2023-10-20T02:34:42.594Z,32.97
2023-10-20T02:37:13.344Z,37.42
2023-10-20T02:39:40.916Z,37.58
2023-10-20T02:42:07.763Z,36.35
2023-10-20T02:44:34.998Z,36.00
2023-10-20T02:47:01.985Z,32.72
2023-10-20T02:49:29.154Z,34.05
2023-10-20T02:51:56.947Z,36.08
2023-10-20T02:54:24.114Z,36.72
2023-10-20T02:56:50.954Z,33.08
2023-10-20T02:59:18.110Z,37.00
2023-10-20T03:01:44.901Z,35.45
2023-10-20T03:04:12.142Z,33.13
2023-10-20T03:06:39.076Z,36.97
2023-10-20T03:09:06.242Z,34.75
2023-10-20T03:11:33.072Z,35.10
2023-10-20T03:14:00.488Z,37.88
2023-10-20T03:16:27.967Z,32.30
2023-10-20T03:18:55.138Z,36.78
2023-10-20T03:21:22.868Z,38.60
2023-10-20T03:23:50.277Z,35.28
2023-10-20T03:26:17.229Z,35.97
2023-10-20T03:28:45.312Z,35.22
2023-10-20T03:31:12.593Z,35.72
2023-10-20T03:33:39.752Z,37.50
2023-10-20T03:36:06.705Z,32.03
2023-10-20T03:38:34.321Z,32.35
2023-10-20T03:41:08.122Z,40.45
2023-10-20T03:43:36.518Z,35.72
2023-10-20T03:46:04.329Z,35.47
2023-10-20T03:48:34.565Z,34.20
2023-10-20T03:51:01.594Z,33.05
2023-10-20T03:53:28.886Z,35.72
2023-10-20T03:56:02.541Z,35.28
2023-10-20T03:58:30.611Z,34.80
2023-10-20T04:01:03.860Z,34.20
2023-10-20T04:03:31.606Z,30.88
2023-10-20T04:05:58.849Z,33.65
2023-10-20T04:08:26.101Z,36.45
2023-10-20T04:10:59.351Z,32.50
2023-10-20T04:13:26.632Z,32.67
2023-10-20T04:15:56.216Z,31.77
2023-10-20T04:18:27.815Z,30.25
2023-10-20T04:20:58.863Z,36.92
2023-10-20T04:23:27.563Z,34.05
2023-10-20T04:25:54.437Z,32.47
2023-10-20T04:28:29.389Z,29.83
2023-10-20T04:31:14.555Z,34.67
2023-10-20T04:33:59.931Z,32.17
2023-10-20T04:36:45.363Z,36.97
2023-10-20T04:39:31.262Z,33.30
2023-10-20T04:42:18.012Z,28.92
2023-10-20T04:45:03.679Z,30.60
2023-10-20T04:47:33.473Z,31.17
2023-10-20T04:50:03.176Z,31.50
2023-10-20T04:52:48.667Z,31.08
2023-10-20T04:57:57.886Z,28.90
2023-10-20T05:00:24.995Z,28.33
2023-10-20T05:02:52.769Z,30.10
2023-10-20T05:05:24.291Z,30.42
2023-10-20T05:07:52.224Z,29.80
2023-10-20T05:10:20.700Z,29.63
2023-10-20T05:12:48.053Z,33.15
2023-10-20T05:15:15.680Z,28.05
2023-10-20T05:17:42.690Z,26.73
2023-10-20T05:20:11.317Z,28.38
2023-10-20T05:22:38.154Z,25.17
2023-10-20T05:25:05.770Z,29.52
2023-10-20T05:27:32.524Z,27.45
2023-10-20T05:29:59.586Z,27.23
2023-10-20T05:32:26.434Z,30.95
2023-10-20T05:34:55.688Z,27.08
2023-10-20T05:37:25.316Z,33.47
2023-10-20T05:39:52.710Z,31.20
2023-10-20T05:42:19.560Z,31.92
2023-10-20T05:45:02.571Z,29.27
2023-10-20T05:47:33.159Z,30.60
2023-10-20T05:50:02.078Z,28.60
2023-10-20T05:52:28.945Z,26.08
2023-10-20T05:54:57.195Z,27.48
2023-10-20T05:57:23.935Z,27.27
2023-10-20T05:59:51.556Z,26.60
2023-10-20T06:02:18.454Z,28.70
2023-10-20T06:04:45.565Z,29.15
2023-10-20T06:07:12.372Z,28.15
2023-10-20T06:09:40.785Z,28.00
2023-10-20T06:12:11.580Z,25.85
2023-10-20T06:14:38.907Z,29.95
2023-10-20T06:17:05.767Z,27.65
2023-10-20T06:19:33.014Z,28.42
2023-10-20T06:22:01.654Z,31.40
2023-10-20T06:24:29.335Z,29.63
2023-10-20T06:27:03.788Z,25.98
2023-10-20T06:29:34.984Z,28.38
2023-10-20T06:32:20.540Z,27.58
2023-10-20T06:34:48.783Z,28.00
2023-10-20T06:37:25.953Z,27.27
2023-10-20T06:39:53.212Z,26.38
2023-10-20T06:42:21.682Z,25.95
2023-10-20T06:44:50.405Z,26.77
2023-10-20T06:47:18.095Z,28.60
2023-10-20T06:49:45.837Z,28.77
2023-10-20T06:52:18.289Z,28.83
2023-10-20T06:55:02.530Z,34.28
2023-10-20T06:57:33.431Z,34.47
2023-10-20T07:00:00.922Z,29.55
2023-10-20T07:02:29.164Z,31.42
2023-10-20T07:04:57.612Z,29.58
2023-10-20T07:07:24.653Z,28.58
2023-10-20T07:09:51.827Z,28.95
2023-10-20T07:12:18.687Z,31.23
2023-10-20T07:14:45.870Z,34.35
2023-10-20T07:17:13.286Z,34.08
2023-10-20T07:19:40.478Z,33.47
2023-10-20T07:22:07.315Z,28.88
2023-10-20T07:24:34.979Z,29.38
2023-10-20T07:27:03.223Z,29.08
2023-10-20T07:29:30.869Z,30.90
2023-10-20T07:31:57.856Z,32.55
2023-10-20T07:34:26.450Z,28.13
2023-10-20T07:36:53.388Z,31.77
2023-10-20T07:39:20.836Z,32.85
2023-10-20T07:41:48.948Z,32.85
2023-10-20T07:44:19.909Z,29.50
2023-10-20T07:46:46.742Z,30.48
2023-10-20T07:49:13.884Z,33.05
2023-10-20T07:51:41.016Z,36.42
2023-10-20T07:54:09.582Z,29.30
2023-10-20T07:56:36.806Z,34.17
2023-10-20T07:59:05.185Z,31.38
2023-10-20T08:01:32.179Z,30.17
2023-10-20T08:03:59.601Z,31.95
2023-10-20T08:06:27.182Z,29.15
2023-10-20T08:08:54.457Z,34.10
2023-10-20T08:11:21.331Z,30.15
2023-10-20T08:13:52.036Z,33.17
2023-10-20T08:16:19.995Z,31.75
2023-10-20T08:18:47.247Z,29.00
2023-10-20T08:21:14.144Z,32.50
2023-10-20T08:23:41.280Z,28.63
2023-10-20T08:26:14.429Z,26.40
2023-10-20T08:28:41.577Z,26.70
2023-10-20T08:31:09.563Z,26.83
2023-10-20T08:33:39.776Z,28.13
2023-10-20T08:36:16.723Z,28.02
2023-10-20T08:38:44.915Z,25.20
2023-10-20T08:41:13.832Z,27.88
2023-10-20T08:43:45.243Z,28.77
2023-10-20T08:46:12.893Z,28.70
2023-10-20T08:48:41.003Z,25.48
2023-10-20T08:51:08.899Z,30.85
2023-10-20T08:53:37.803Z,30.00
2023-10-20T08:56:06.167Z,27.27
2023-10-20T08:58:33.387Z,24.92
2023-10-20T09:01:00.731Z,27.35
2023-10-20T09:03:28.447Z,27.17
2023-10-20T09:06:06.718Z,27.27
2023-10-20T09:08:37.828Z,26.70
2023-10-20T09:11:10.982Z,28.40
2023-10-20T09:13:41.141Z,26.52
2023-10-20T09:16:09.975Z,25.92
2023-10-20T09:18:50.823Z,26.85
2023-10-20T09:21:22.213Z,22.35
2023-10-20T09:24:03.463Z,23.80
2023-10-20T09:26:34.442Z,24.88
2023-10-20T09:29:01.868Z,20.77
2023-10-20T09:31:29.444Z,20.40
2023-10-20T09:33:56.663Z,23.85
2023-10-20T09:36:26.721Z,22.60
2023-10-20T09:38:55.302Z,25.63
2023-10-20T09:41:31.336Z,23.30
2023-10-20T09:44:08.246Z,26.00
2023-10-20T09:46:50.548Z,24.40
2023-10-20T09:49:23.046Z,25.02
2023-10-20T09:54:24.093Z,32.35
2023-10-20T09:56:50.925Z,31.45
2023-10-20T09:59:22.122Z,32.25
2023-10-20T10:01:49.142Z,32.78
2023-10-20T10:04:22.931Z,29.83
2023-10-20T10:06:49.853Z,29.75
2023-10-20T10:09:17.445Z,31.92
2023-10-20T10:11:44.505Z,27.88
2023-10-20T10:14:22.054Z,30.77
2023-10-20T10:16:55.384Z,31.42
2023-10-20T10:19:29.258Z,28.85
2023-10-20T10:21:59.812Z,27.15
2023-10-20T10:24:27.507Z,25.98
2023-10-20T10:27:04.258Z,27.63
2023-10-20T10:29:50.593Z,27.33
2023-10-20T10:32:22.089Z,24.60
2023-10-20T10:34:50.552Z,26.58
2023-10-20T10:37:35.962Z,25.40
2023-10-20T10:40:13.716Z,23.50
2023-10-20T10:42:49.547Z,22.60
2023-10-20T10:45:25.618Z,22.35
2023-10-20T10:48:12.507Z,24.67
2023-10-20T10:50:43.219Z,26.30
2023-10-20T10:53:14.031Z,25.90
2023-10-20T10:55:45.130Z,24.77
2023-10-20T10:58:16.160Z,23.25
2023-10-20T11:00:45.076Z,24.27
2023-10-20T11:03:13.024Z,26.98
2023-10-20T11:05:40.537Z,26.73
2023-10-20T11:08:09.100Z,26.75
2023-10-20T11:10:37.493Z,24.05
2023-10-20T11:13:09.084Z,24.17
2023-10-20T11:15:36.433Z,23.60
2023-10-20T11:18:08.130Z,22.65
2023-10-20T11:20:39.076Z,24.77
2023-10-20T11:23:10.442Z,22.58
2023-10-20T11:25:38.278Z,24.70
2023-10-20T11:28:06.239Z,21.55
2023-10-20T11:30:35.952Z,23.10
2023-10-20T11:33:04.927Z,21.38
2023-10-20T11:35:31.981Z,23.05
2023-10-20T11:37:59.448Z,22.08
2023-10-20T11:40:29.974Z,20.42
2023-10-20T11:42:57.452Z,23.75
2023-10-20T11:45:24.685Z,20.73
2023-10-20T11:47:52.621Z,20.92
2023-10-20T11:50:20.545Z,22.58
2023-10-20T11:52:48.683Z,21.67
2023-10-20T11:55:15.564Z,21.30
2023-10-20T11:57:42.962Z,20.50
2023-10-20T12:00:11.242Z,21.80
2023-10-20T12:02:39.694Z,20.10
2023-10-20T12:05:07.371Z,20.73
2023-10-20T12:07:34.657Z,24.67
2023-10-20T12:10:01.520Z,20.38
2023-10-20T12:12:29.557Z,19.08
2023-10-20T12:14:56.396Z,18.02
2023-10-20T12:17:25.661Z,17.98
2023-10-20T12:19:52.558Z,20.40
2023-10-20T12:22:19.766Z,17.00
2023-10-20T12:24:46.831Z,17.60
2023-10-20T12:27:14.682Z,19.13
2023-10-20T12:29:42.031Z,17.60
2023-10-20T12:32:13.861Z,17.63
2023-10-20T12:34:41.262Z,21.00
2023-10-20T12:37:09.024Z,18.15
2023-10-20T12:39:36.195Z,23.25
2023-10-20T12:42:06.797Z,21.52
2023-10-20T12:44:37.302Z,22.95
2023-10-20T12:47:07.297Z,19.95
2023-10-20T12:49:34.384Z,19.88
2023-10-20T12:52:01.576Z,19.13
2023-10-20T12:54:28.460Z,22.08
2023-10-20T12:56:56.102Z,16.88
2023-10-20T12:59:22.998Z,16.90
2023-10-20T13:01:51.213Z,18.20
2023-10-20T13:04:18.319Z,22.80
2023-10-20T13:06:59.301Z,18.80
2023-10-20T13:09:28.018Z,20.67
2023-10-20T13:11:57.578Z,19.50
2023-10-20T13:14:24.766Z,16.77
2023-10-20T13:16:52.266Z,18.25
2023-10-20T13:19:19.544Z,18.77
2023-10-20T13:21:46.737Z,18.88
2023-10-20T13:24:13.509Z,18.30
2023-10-20T13:26:40.770Z,16.98
2023-10-20T13:29:07.630Z,20.38
2023-10-20T13:31:35.231Z,20.33
2023-10-20T13:34:03.589Z,17.55
2023-10-20T13:36:30.817Z,19.98
2023-10-20T13:38:57.704Z,20.42
2023-10-20T13:41:25.233Z,19.92
2023-10-20T13:43:53.210Z,18.92
2023-10-20T13:46:20.783Z,17.60
2023-10-20T13:48:48.545Z,18.58
2023-10-20T13:51:16.505Z,20.33
2023-10-20T13:53:43.468Z,17.45
2023-10-20T13:56:10.758Z,17.92
2023-10-20T13:58:37.667Z,17.83
2023-10-20T14:01:04.911Z,22.83
2023-10-20T14:03:33.204Z,21.23
2023-10-20T14:06:00.687Z,22.25
2023-10-20T14:08:27.964Z,19.25
2023-10-20T14:10:56.666Z,18.48
2023-10-20T14:13:23.579Z,19.77
2023-10-20T14:15:50.926Z,19.92
2023-10-20T14:18:18.266Z,21.63
2023-10-20T14:20:45.521Z,20.35
2023-10-20T14:23:12.481Z,19.40
2023-10-20T14:25:39.697Z,20.90
2023-10-20T14:28:07.093Z,24.02
2023-10-20T14:30:34.508Z,21.10
2023-10-20T14:33:01.679Z,24.58
2023-10-20T14:35:29.233Z,21.92
2023-10-20T14:37:59.121Z,24.10
2023-10-20T14:40:27.410Z,20.42
2023-10-20T14:42:54.363Z,24.25
2023-10-20T14:45:21.643Z,23.58
2023-10-20T14:47:48.625Z,23.58
2023-10-20T14:50:15.825Z,24.33
2023-10-20T14:52:42.651Z,25.08
2023-10-20T14:55:12.698Z,23.33
2023-10-20T14:57:39.568Z,23.15
2023-10-20T15:00:11.014Z,21.52
2023-10-20T15:02:41.715Z,21.80
2023-10-20T15:05:09.930Z,21.40
2023-10-20T15:07:37.783Z,23.15
2023-10-20T15:10:05.750Z,22.50
2023-10-20T15:12:32.842Z,22.13
2023-10-20T15:15:00.784Z,19.15
2023-10-20T15:17:28.376Z,22.98
2023-10-20T15:19:55.419Z,22.38
2023-10-20T15:22:23.753Z,23.17
2023-10-20T15:24:53.045Z,28.83
2023-10-20T15:27:20.231Z,23.90
2023-10-20T15:29:47.303Z,24.52
2023-10-20T15:32:16.681Z,27.20
2023-10-20T15:34:43.723Z,25.50
2023-10-20T15:37:10.856Z,22.85
2023-10-20T15:39:49.165Z,27.35
2023-10-20T15:42:20.054Z,33.42
2023-10-20T15:44:46.907Z,33.00
2023-10-20T15:47:14.157Z,28.75
2023-10-20T15:49:41.353Z,27.17
2023-10-20T15:52:09.290Z,27.30
2023-10-20T15:54:36.210Z,30.92
2023-10-20T15:57:03.521Z,32.15
2023-10-20T15:59:31.355Z,27.17
2023-10-20T16:01:58.653Z,24.63
2023-10-20T16:04:25.783Z,25.85
2023-10-20T16:06:53.057Z,28.67
2023-10-20T16:09:20.313Z,32.17
2023-10-20T16:11:47.558Z,29.10
2023-10-20T16:14:14.436Z,31.50
2023-10-20T16:16:41.658Z,29.00
2023-10-20T16:19:08.568Z,36.50
2023-10-20T16:21:35.775Z,34.55
2023-10-20T16:24:02.716Z,40.15
2023-10-20T16:26:30.788Z,40.20
2023-10-20T16:28:57.736Z,39.30
2023-10-20T16:31:24.918Z,43.15
2023-10-20T16:33:54.952Z,39.60
2023-10-20T16:36:22.115Z,50.75
2023-10-20T16:38:49.004Z,49.40
2023-10-20T16:41:19.052Z,53.58
2023-10-20T16:43:45.931Z,53.50
2023-10-20T16:46:13.125Z,53.38
2023-10-20T16:48:41.855Z,56.45
2023-10-20T16:51:09.269Z,62.40
2023-10-20T16:53:36.552Z,67.82
2023-10-20T16:56:05.781Z,89.43
2023-10-20T16:58:32.564Z,87.43
2023-10-20T17:01:04.197Z,82.95
2023-10-20T17:03:31.376Z,84.57
2023-10-20T17:05:58.744Z,84.60
2023-10-20T17:08:27.245Z,90.65
2023-10-20T17:10:56.011Z,81.15
2023-10-20T17:13:22.887Z,81.22
2023-10-20T17:15:50.046Z,75.43
2023-10-20T17:18:17.004Z,76.65
2023-10-20T17:20:44.409Z,75.63
2023-10-20T17:23:11.578Z,79.18
2023-10-20T17:25:39.497Z,95.63
2023-10-20T17:28:06.583Z,88.90
2023-10-20T17:30:36.772Z,87.90
2023-10-20T17:33:05.190Z,87.40
2023-10-20T17:35:35.854Z,75.90
2023-10-20T17:38:02.844Z,79.32
2023-10-20T17:40:30.024Z,76.47
2023-10-20T17:42:56.860Z,78.43
2023-10-20T17:45:24.310Z,81.90
2023-10-20T17:47:51.443Z,75.65
2023-10-20T17:50:18.861Z,69.70
2023-10-20T17:52:46.350Z,73.18
2023-10-20T17:55:13.578Z,75.00
2023-10-20T17:57:40.443Z,84.70
2023-10-20T18:00:13.132Z,78.93
2023-10-20T18:02:40.241Z,79.03
2023-10-20T18:05:07.851Z,83.00
2023-10-20T18:07:34.730Z,91.03
2023-10-20T18:10:02.175Z,90.78
2023-10-20T18:12:29.197Z,90.93
2023-10-20T18:14:56.392Z,91.20
2023-10-20T18:17:23.387Z,97.57
2023-10-20T18:19:50.570Z,88.78
2023-10-20T18:22:18.249Z,85.03
2023-10-20T18:24:45.426Z,86.35
2023-10-20T18:27:12.305Z,90.07
2023-10-20T18:29:40.907Z,89.90
2023-10-20T18:32:07.760Z,87.00
2023-10-20T18:34:35.475Z,87.05
2023-10-20T18:37:02.970Z,85.65
2023-10-20T18:39:30.192Z,90.55
2023-10-20T18:41:57.170Z,88.43
2023-10-20T18:44:24.407Z,92.03
2023-10-20T18:46:51.682Z,87.47
2023-10-20T18:49:19.179Z,85.15
2023-10-20T18:51:46.032Z,82.43
2023-10-20T18:54:13.216Z,86.22
2023-10-20T18:56:40.129Z,78.00
2023-10-20T18:59:07.374Z,84.28
2023-10-20T19:01:34.293Z,86.63
2023-10-20T19:04:02.517Z,87.07
2023-10-20T19:06:29.797Z,85.47
2023-10-20T19:08:57.084Z,87.95
2023-10-20T19:11:24.155Z,89.20
2023-10-20T19:13:52.648Z,83.53
2023-10-20T19:16:19.608Z,83.90
2023-10-20T19:18:46.906Z,82.97
2023-10-20T19:21:13.892Z,87.85
2023-10-20T19:23:42.103Z,87.65
2023-10-20T19:26:11.516Z,90.80
2023-10-20T19:28:41.904Z,82.90
2023-10-20T19:31:09.242Z,81.35
2023-10-20T19:33:37.159Z,83.00
2023-10-20T19:36:06.294Z,79.35
2023-10-20T19:38:33.766Z,84.43
2023-10-20T19:41:00.838Z,75.25
2023-10-20T19:43:28.164Z,72.15
2023-10-20T19:45:55.047Z,75.13
2023-10-20T19:48:22.249Z,76.57
2023-10-20T19:50:49.131Z,73.13
2023-10-20T19:53:16.599Z,75.30
2023-10-20T19:55:44.190Z,73.00
2023-10-20T19:58:12.128Z,71.13
2023-10-20T20:00:40.736Z,75.03
2023-10-20T20:03:08.553Z,73.90
2023-10-20T20:05:36.977Z,73.40
2023-10-20T20:08:04.448Z,74.90
2023-10-20T20:10:31.361Z,68.22
2023-10-20T20:12:58.489Z,67.18
2023-10-20T20:15:25.515Z,62.40
2023-10-20T20:17:52.829Z,67.47
2023-10-20T20:20:19.934Z,66.13
2023-10-20T20:22:47.093Z,62.17
2023-10-20T20:25:13.970Z,66.63
2023-10-20T20:27:41.279Z,58.85
2023-10-20T20:30:08.835Z,62.30
2023-10-20T20:32:36.122Z,61.03
2023-10-20T20:35:04.579Z,60.97
2023-10-20T20:37:31.740Z,58.30
2023-10-20T20:39:58.655Z,54.78
2023-10-20T20:42:26.291Z,61.05
2023-10-20T20:44:53.204Z,55.80
2023-10-20T20:47:20.384Z,51.92
2023-10-20T20:49:47.195Z,55.42
2023-10-20T20:52:14.369Z,57.92
2023-10-20T20:54:41.211Z,55.13
2023-10-20T20:57:08.572Z,56.72
2023-10-20T20:59:36.248Z,57.03
2023-10-20T21:02:03.861Z,54.85
2023-10-20T21:04:31.077Z,51.38
2023-10-20T21:06:58.354Z,52.50
2023-10-20T21:09:25.427Z,54.47
2023-10-20T21:11:52.625Z,51.38
2023-10-20T21:14:19.549Z,49.17
2023-10-20T21:16:47.304Z,55.58
2023-10-20T21:19:14.980Z,47.97
2023-10-20T21:21:42.189Z,42.95
2023-10-20T21:24:09.399Z,43.97
2023-10-20T21:26:36.752Z,45.03
2023-10-20T21:29:06.806Z,40.90
2023-10-20T21:31:33.960Z,41.95
2023-10-20T21:34:00.761Z,39.33
2023-10-20T21:36:27.940Z,42.20
2023-10-20T21:38:54.825Z,38.38
2023-10-20T21:41:22.010Z,44.38
2023-10-20T21:43:48.822Z,35.78
2023-10-20T21:46:16.147Z,38.85
2023-10-20T21:48:43.138Z,35.03
2023-10-20T21:51:13.791Z,34.08
2023-10-20T21:53:40.757Z,30.23
2023-10-20T21:56:10.105Z,32.58
2023-10-20T21:58:38.463Z,26.50
2023-10-20T22:01:06.463Z,22.98
2023-10-20T22:03:33.724Z,29.58
2023-10-20T22:06:01.182Z,30.83
2023-10-20T22:08:28.103Z,23.50
2023-10-20T22:10:55.634Z,26.80
2023-10-20T22:13:22.593Z,33.35
2023-10-20T22:15:49.925Z,22.10
2023-10-20T22:18:16.876Z,23.73
2023-10-20T22:20:44.268Z,25.88
2023-10-20T22:23:11.328Z,26.92
2023-10-20T22:25:38.638Z,25.75
2023-10-20T22:28:06.095Z,21.77
2023-10-20T22:30:33.610Z,23.42
2023-10-20T22:33:01.005Z,23.73
2023-10-20T22:35:28.316Z,25.90
2023-10-20T22:37:55.207Z,20.73
2023-10-20T22:40:22.591Z,18.38
2023-10-20T22:42:49.444Z,19.15
2023-10-20T22:45:16.612Z,22.13
2023-10-20T22:47:43.530Z,20.65
2023-10-20T22:50:10.953Z,19.80
2023-10-20T22:52:37.812Z,20.73
2023-10-20T22:55:05.404Z,16.85
2023-10-20T22:57:33.032Z,14.93
2023-10-20T23:00:00.593Z,15.57
2023-10-20T23:02:27.664Z,20.98
2023-10-20T23:04:54.985Z,18.33
2023-10-20T23:07:21.778Z,15.35
2023-10-20T23:09:48.969Z,17.55
2023-10-20T23:12:17.834Z,14.07
2023-10-20T23:14:45.175Z,20.48
2023-10-20T23:17:11.990Z,11.10
2023-10-20T23:19:39.208Z,17.90
2023-10-20T23:22:06.088Z,15.10
2023-10-20T23:24:33.185Z,13.45
2023-10-20T23:27:01.269Z,17.15
2023-10-20T23:29:28.681Z,17.13
2023-10-20T23:31:55.476Z,15.50
2023-10-20T23:34:22.623Z,16.98
2023-10-20T23:36:49.488Z,13.13
2023-10-20T23:39:16.613Z,12.50
2023-10-20T23:41:43.615Z,14.85
2023-10-20T23:44:10.766Z,26.33
2023-10-20T23:46:37.566Z,13.75
2023-10-20T23:49:04.679Z,12.90
2023-10-20T23:51:31.452Z,15.50
2023-10-20T23:53:58.603Z,17.67
2023-10-20T23:56:26.200Z,17.33
2023-10-20T23:58:53.343Z,10.90
